Time;durP1;ratioP1;P1;durP2;ratioP2;P2;SDS_P1;SDS_P2;PMS_P1;PMS_P2;Temp;Humidity;BMP_temperature;BMP_pressure;BME280_temperature;BME280_humidity;BME280_pressure;Samples;Min_cycle;Max_cycle;Signal;HPM_P1;HPM_P2
2023/09/05 00:00:47;;;;;;;;;;;;;;;19.54;69.30;102150.81;4179484;28;20016;-65
2023/09/05 00:05:12;;;;;;;;;;;;;;;19.51;69.38;102146.56;4158404;28;19972;-66
2023/09/05 00:07:43;;;;;;;;;;;;;;;19.49;69.32;102147.84;4178045;28;19948;-67
2023/09/05 00:10:07;;;;;;;;;;;;;;;;;;;;;
2023/09/05 00:12:21;;;;;;;;;;;;;;;19.48;69.50;102146.13;4176937;28;20032;-66
2023/09/05 00:14:35;;;;;;;;;;;;;;;19.49;69.73;102153.31;4161046;28;19925;-66
2023/09/05 00:17:06;;;;;;;;;;;;;;;;;;;;;
2023/09/05 00:22:30;;;;;;;;;;;;;;;;;;;;;
2023/09/05 00:24:44;;;;;;;;;;;;;;;19.43;69.71;102133.88;4195672;28;20397;-66
2023/09/05 00:26:57;;;;;;;;;;;;;;;19.41;69.79;102137.88;4186569;28;19932;-66
2023/09/05 00:29:33;;;;;;;;;;;;;;;19.39;69.53;102138.09;4198031;28;19932;-66
2023/09/05 00:34:53;;;;;;;;;;;;;;;19.37;69.84;102142.06;4195491;28;19955;-66
2023/09/05 00:37:22;;;;;;;;;;;;;;;19.35;70.01;102139.53;4113983;28;19930;-67
2023/09/05 00:42:15;;;;;;;;;;;;;;;19.34;69.70;102132.38;4114413;28;20078;-67
2023/09/05 00:44:50;;;;;;;;;;;;;;;19.31;69.78;102132.78;4178323;28;20494;-66
2023/09/05 00:47:11;;;;;;;;;;;;;;;19.31;69.82;102130.03;4180127;28;20012;-66
2023/09/05 00:49:29;;;;;;;;;;;;;;;19.30;70.03;102125.59;4189173;28;19924;-66
2023/09/05 00:55:11;;;;;;;;;;;;;;;19.30;70.06;102119.28;4194890;28;19924;-66
2023/09/05 01:00:28;;;;;;;;;;;;;;;19.26;70.26;102122.41;4197294;28;19985;-66
2023/09/05 01:02:44;;;;;;;;;;;;;;;19.26;70.15;102130.63;4190161;28;19928;-67
2023/09/05 01:05:37;;;;;;;;;;;;;;;19.25;70.32;102119.88;4194207;28;19924;-66
2023/09/05 01:13:57;;;;;;;;;;;;;;;19.20;70.03;102105.94;4184986;28;20294;-66
2023/09/05 01:28:52;;;;;;;;;;;;;;;19.17;70.28;102103.59;4144050;28;19948;-66
2023/09/05 01:31:09;;;;;;;;;;;;;;;19.17;70.36;102101.72;4193863;28;20019;-66
2023/09/05 01:33:40;;;;;;;;;;;;;;;19.16;70.40;102094.53;4197692;28;19932;-66
2023/09/05 01:36:14;;;;;;;;;;;;;;;19.16;70.12;102091.78;4196721;28;19987;-65
2023/09/05 01:38:30;;;;;;;;;;;;;;;19.16;70.16;102089.06;4197045;28;20019;-66
2023/09/05 01:40:55;;;;;;;;;;;;;;;;;;;;;
2023/09/05 01:43:39;;;;;;;;;;;;;;;19.17;70.29;102089.91;4171518;28;20341;-66
2023/09/05 01:48:19;;;;;;;;;;;;;;;19.17;70.09;102090.75;4140381;28;20016;-66
2023/09/05 01:50:42;;;;;;;;;;;;;;;19.16;70.08;102089.06;4205545;22;19975;-66
2023/09/05 01:53:06;;;;;;;;;;;;;;;19.17;70.18;102085.28;4181267;28;20406;-66
2023/09/05 01:58:52;;;;;;;;;;;;;;;19.16;69.92;102074.53;4182879;28;19925;-66
2023/09/05 02:04:25;;;;;;;;;;;;;;;19.13;70.12;102075.78;4179503;28;19939;-67
2023/09/05 02:09:52;;;;;;;;;;;;;;;19.13;70.20;102074.94;4152044;28;19961;-66
2023/09/05 02:12:27;;;;;;;;;;;;;;;19.12;70.13;102082.28;4174168;28;19991;-66
2023/09/05 02:14:45;;;;;;;;;;;;;;;19.13;69.99;102085.88;4188701;28;19928;-66
2023/09/05 02:19:42;;;;;;;;;;;;;;;19.09;70.31;102075.34;4147211;28;19925;-65
2023/09/05 02:21:50;;;;;;;;;;;;;;;19.08;70.23;102065.41;4160491;28;19986;-66
2023/09/05 02:28:49;;;;;;;;;;;;;;;19.05;70.11;102056.78;4169132;28;19931;-67
2023/09/05 02:31:00;;;;;;;;;;;;;;;19.05;70.15;102062.25;4172086;28;19995;-66
2023/09/05 02:33:19;;;;;;;;;;;;;;;19.03;70.15;102053.41;4177896;28;19928;-66
2023/09/05 02:38:01;;;;;;;;;;;;;;;19.00;70.17;102057.38;4169235;28;20381;-66
2023/09/05 02:40:19;;;;;;;;;;;;;;;18.99;70.28;102044.72;4171928;28;19929;-66
2023/09/05 02:42:32;;;;;;;;;;;;;;;18.98;70.21;102050.41;4162921;28;20313;-65
2023/09/05 02:44:45;;;;;;;;;;;;;;;18.97;70.14;102041.34;4172036;28;19956;-65
2023/09/05 02:46:48;;;;;;;;;;;;;;;18.98;70.39;102042.19;4187560;28;20490;-67
2023/09/05 02:48:54;;;;;;;;;;;;;;;18.96;70.16;102038.81;4171832;28;20337;-66
2023/09/05 02:51:08;;;;;;;;;;;;;;;18.95;70.25;102035.25;4171751;28;19925;-66
2023/09/05 02:53:21;;;;;;;;;;;;;;;18.94;70.26;102044.50;4170825;28;19961;-67
2023/09/05 02:55:30;;;;;;;;;;;;;;;18.93;70.39;102039.22;4170218;28;19925;-65
2023/09/05 02:57:38;;;;;;;;;;;;;;;18.91;70.43;102045.72;4178434;28;19929;-66
2023/09/05 02:59:42;;;;;;;;;;;;;;;18.89;70.47;102036.88;4171285;28;19972;-67
2023/09/05 03:01:49;;;;;;;;;;;;;;;18.88;70.35;102037.91;4171047;28;20146;-66
2023/09/05 03:04:06;;;;;;;;;;;;;;;18.87;70.41;102036.25;4177878;28;19931;-66
2023/09/05 03:06:24;;;;;;;;;;;;;;;18.87;70.59;102036.25;4167574;28;19955;-67
2023/09/05 03:08:59;;;;;;;;;;;;;;;18.86;70.45;102040.00;4171162;28;19925;-67
2023/09/05 03:11:10;;;;;;;;;;;;;;;18.84;70.45;102044.84;4161152;28;20359;-66
2023/09/05 03:13:17;;;;;;;;;;;;;;;18.85;70.52;102042.94;4177694;28;20031;-66
2023/09/05 03:15:50;;;;;;;;;;;;;;;18.83;70.76;102048.59;4169465;28;20576;-66
2023/09/05 03:18:14;;;;;;;;;;;;;;;;;;;;;
2023/09/05 03:20:25;;;;;;;;;;;;;;;18.81;70.68;102049.81;4171498;28;20027;-65
2023/09/05 03:23:04;;;;;;;;;;;;;;;18.79;70.85;102052.75;4172928;28;20387;-66
2023/09/05 03:25:07;;;;;;;;;;;;;;;18.78;70.66;102052.97;4172069;28;20434;-65
2023/09/05 03:27:13;;;;;;;;;;;;;;;18.78;70.76;102050.22;4177523;28;20011;-66
2023/09/05 03:29:15;;;;;;;;;;;;;;;18.75;70.88;102048.75;4176950;28;20028;-66
2023/09/05 03:31:17;;;;;;;;;;;;;;;18.75;70.75;102053.41;4176874;28;20430;-66
2023/09/05 03:33:19;;;;;;;;;;;;;;;18.73;70.76;102054.44;4186069;28;20473;-64
2023/09/05 03:35:20;;;;;;;;;;;;;;;18.73;70.66;102048.13;4170992;28;20023;-65
2023/09/05 03:37:23;;;;;;;;;;;;;;;18.71;70.76;102044.72;4171916;28;19978;-65
2023/09/05 03:39:25;;;;;;;;;;;;;;;18.70;70.94;102043.03;4171215;28;20459;-65
2023/09/05 03:41:25;;;;;;;;;;;;;;;18.70;70.82;102052.09;4171062;28;20032;-64
2023/09/05 03:43:29;;;;;;;;;;;;;;;18.70;70.72;102048.50;4171233;28;19929;-66
2023/09/05 03:45:31;;;;;;;;;;;;;;;18.70;70.77;102040.31;4185370;28;20012;-65
2023/09/05 03:47:32;;;;;;;;;;;;;;;18.68;70.92;102043.25;4170745;28;20501;-65
2023/09/05 03:49:34;;;;;;;;;;;;;;;18.67;70.81;102043.44;4185228;28;20392;-66
2023/09/05 03:51:36;;;;;;;;;;;;;;;18.67;70.71;102044.28;4168482;28;20024;-66
2023/09/05 03:53:37;;;;;;;;;;;;;;;18.67;70.95;102051.66;4185646;28;20591;-65
2023/09/05 03:55:39;;;;;;;;;;;;;;;18.66;70.93;102045.31;4170197;28;19925;-65
2023/09/05 03:57:41;;;;;;;;;;;;;;;18.66;70.82;102044.47;4185466;28;20368;-67
2023/09/05 03:59:45;;;;;;;;;;;;;;;18.66;70.76;102041.75;4168910;28;20023;-66
2023/09/05 04:01:48;;;;;;;;;;;;;;;18.66;70.74;102049.94;4170201;28;20028;-66
2023/09/05 04:03:50;;;;;;;;;;;;;;;18.64;70.96;102041.94;4173172;28;20359;-66
2023/09/05 04:05:53;;;;;;;;;;;;;;;18.64;70.95;102052.03;4189305;28;20436;-66
2023/09/05 04:07:55;;;;;;;;;;;;;;;18.61;70.88;102056.00;4173809;28;20012;-66
2023/09/05 04:09:57;;;;;;;;;;;;;;;18.62;70.92;102049.50;4187937;28;20019;-66
2023/09/05 04:11:59;;;;;;;;;;;;;;;18.60;70.97;102048.00;4187393;28;20087;-65
2023/09/05 04:14:01;;;;;;;;;;;;;;;18.60;70.88;102064.41;4179924;28;20028;-66
2023/09/05 04:16:04;;;;;;;;;;;;;;;18.59;71.16;102055.38;4173830;28;20019;-66
2023/09/05 04:18:07;;;;;;;;;;;;;;;18.58;71.18;102052.84;4174912;28;20032;-66
2023/09/05 04:20:12;;;;;;;;;;;;;;;18.58;71.09;102064.63;4178134;28;20527;-66
2023/09/05 04:22:14;;;;;;;;;;;;;;;18.57;71.06;102062.91;4179838;28;20023;-66
2023/09/05 04:24:17;;;;;;;;;;;;;;;18.55;71.00;102057.66;4189497;28;20030;-66
2023/09/05 04:26:22;;;;;;;;;;;;;;;18.55;71.13;102059.53;4173840;28;20019;-66
2023/09/05 04:28:26;;;;;;;;;;;;;;;18.55;71.27;102065.00;4172787;28;20023;-66
2023/09/05 04:30:28;;;;;;;;;;;;;;;18.54;71.12;102066.03;4172841;28;20035;-64
2023/09/05 04:32:34;;;;;;;;;;;;;;;18.55;71.14;102070.50;4173921;28;20016;-65
2023/09/05 04:34:36;;;;;;;;;;;;;;;18.55;71.11;102073.22;4189352;28;20375;-65
2023/09/05 04:36:38;;;;;;;;;;;;;;;18.54;71.02;102080.59;4175046;28;20047;-65
2023/09/05 04:38:41;;;;;;;;;;;;;;;18.55;70.99;102082.25;4174327;28;20016;-65
2023/09/05 04:40:42;;;;;;;;;;;;;;;18.54;70.97;102077.84;4174043;28;20007;-65
2023/09/05 04:42:45;;;;;;;;;;;;;;;18.54;70.98;102077.00;4172728;28;20450;-65
2023/09/05 04:44:50;;;;;;;;;;;;;;;18.53;71.12;102072.59;4173430;28;20032;-64
2023/09/05 04:46:52;;;;;;;;;;;;;;;18.53;70.85;102078.06;4173606;28;20012;-65
2023/09/05 04:48:56;;;;;;;;;;;;;;;18.53;71.01;102078.06;4173783;28;20082;-65
2023/09/05 04:51:01;;;;;;;;;;;;;;;18.52;71.03;102082.66;4172970;28;20606;-65
2023/09/05 04:53:02;;;;;;;;;;;;;;;18.52;71.13;102074.44;4174393;28;19971;-66
2023/09/05 04:55:05;;;;;;;;;;;;;;;18.53;71.09;102078.06;4174309;28;19925;-65
2023/09/05 04:57:10;;;;;;;;;;;;;;;18.53;71.16;102089.00;4174716;28;20015;-65
2023/09/05 04:59:12;;;;;;;;;;;;;;;18.52;71.18;102092.75;4173907;28;20029;-64
2023/09/05 05:01:15;;;;;;;;;;;;;;;18.51;71.03;102083.72;4173883;28;20024;-64
2023/09/05 05:03:17;;;;;;;;;;;;;;;18.51;71.11;102086.47;4173842;28;20367;-65
2023/09/05 05:05:19;;;;;;;;;;;;;;;18.50;71.12;102087.50;4173957;28;20016;-65
2023/09/05 05:07:21;;;;;;;;;;;;;;;18.50;71.27;102094.88;4174035;28;20019;-64
2023/09/05 05:09:24;;;;;;;;;;;;;;;18.50;71.25;102095.69;4172496;28;20016;-64
2023/09/05 05:11:26;;;;;;;;;;;;;;;18.50;71.27;102092.97;4173440;28;20024;-64
2023/09/05 05:13:28;;;;;;;;;;;;;;;18.51;71.27;102091.94;4173998;28;20478;-64
2023/09/05 05:15:29;;;;;;;;;;;;;;;18.53;71.10;102099.94;4173447;28;20411;-64
2023/09/05 05:17:31;;;;;;;;;;;;;;;18.52;70.96;102092.75;4172552;28;19925;-64
2023/09/05 05:19:33;;;;;;;;;;;;;;;18.54;71.11;102096.13;4178347;28;20019;-64
2023/09/05 05:21:39;;;;;;;;;;;;;;;18.54;70.90;102096.13;4172675;28;20468;-65
2023/09/05 05:23:41;;;;;;;;;;;;;;;18.55;70.98;102098.69;4173149;28;20011;-65
2023/09/05 05:25:42;;;;;;;;;;;;;;;18.57;71.14;102098.47;4172241;28;20008;-64
2023/09/05 05:27:45;;;;;;;;;;;;;;;18.59;70.93;102101.03;4172450;28;20024;-65
2023/09/05 05:29:47;;;;;;;;;;;;;;;18.60;70.72;102094.53;4171988;28;20008;-64
2023/09/05 05:31:49;;;;;;;;;;;;;;;18.61;70.61;102090.75;4171491;28;19998;-65
2023/09/05 05:33:51;;;;;;;;;;;;;;;18.63;70.49;102085.91;4172118;28;20012;-65
2023/09/05 05:35:54;;;;;;;;;;;;;;;18.64;70.43;102087.63;4172190;28;19933;-64
2023/09/05 05:37:58;;;;;;;;;;;;;;;18.65;70.41;102075.59;4172187;28;20012;-64
2023/09/05 05:40:00;;;;;;;;;;;;;;;18.66;70.31;102077.31;4172564;28;20501;-65
2023/09/05 05:42:02;;;;;;;;;;;;;;;18.69;70.37;102074.19;4171958;28;20028;-64
2023/09/05 05:44:04;;;;;;;;;;;;;;;18.69;70.46;102080.50;4172715;28;20363;-65
2023/09/05 05:46:06;;;;;;;;;;;;;;;18.71;70.49;102070.22;4173191;28;20035;-65
2023/09/05 05:48:10;;;;;;;;;;;;;;;18.73;70.57;102067.28;4170560;28;20032;-65
2023/09/05 05:50:12;;;;;;;;;;;;;;;18.75;70.32;102061.59;4172197;28;20351;-65
2023/09/05 05:52:16;;;;;;;;;;;;;;;18.77;70.22;102059.50;4178326;28;20389;-65
2023/09/05 05:54:19;;;;;;;;;;;;;;;18.79;70.46;102060.97;4173009;28;20028;-65
2023/09/05 05:56:21;;;;;;;;;;;;;;;18.77;70.56;102054.88;4172717;28;19929;-65
2023/09/05 05:58:22;;;;;;;;;;;;;;;18.81;70.45;102058.91;4171875;28;20303;-65
2023/09/05 06:00:27;;;;;;;;;;;;;;;18.84;70.48;102060.38;4172753;28;20020;-64
2023/09/05 06:02:28;;;;;;;;;;;;;;;18.87;70.38;102054.53;4172391;28;20032;-65
2023/09/05 06:04:30;;;;;;;;;;;;;;;18.88;70.27;102057.06;4170702;28;20023;-64
2023/09/05 06:06:33;;;;;;;;;;;;;;;18.90;70.35;102051.41;4175611;28;19960;-65
2023/09/05 06:08:35;;;;;;;;;;;;;;;18.93;70.38;102061.13;4170048;28;20020;-64
2023/09/05 06:10:39;;;;;;;;;;;;;;;18.96;70.28;102052.50;4151843;28;20021;-64
2023/09/05 06:12:40;;;;;;;;;;;;;;;18.97;70.28;102054.19;4170821;28;20007;-65
2023/09/05 06:14:42;;;;;;;;;;;;;;;18.97;70.34;102046.81;4170229;28;20020;-65
2023/09/05 06:16:45;;;;;;;;;;;;;;;19.00;70.08;102051.06;4172115;28;19971;-65
2023/09/05 06:18:46;;;;;;;;;;;;;;;19.01;70.05;102059.06;4170685;28;20019;-65
2023/09/05 06:20:48;;;;;;;;;;;;;;;19.02;70.06;102059.91;4172072;28;20005;-65
2023/09/05 06:22:50;;;;;;;;;;;;;;;19.03;70.13;102056.13;4170437;28;20016;-64
2023/09/05 06:24:52;;;;;;;;;;;;;;;19.04;69.99;102055.06;4170607;28;20037;-63
2023/09/05 06:26:56;;;;;;;;;;;;;;;19.07;69.86;102049.19;4172833;28;20405;-64
2023/09/05 06:28:57;;;;;;;;;;;;;;;19.11;69.73;102055.97;4172124;28;20039;-65
2023/09/05 06:30:59;;;;;;;;;;;;;;;19.14;69.94;102052.81;4172134;28;20091;-64
2023/09/05 06:33:01;;;;;;;;;;;;;;;19.16;69.66;102053.47;4178369;28;20019;-65
2023/09/05 06:35:02;;;;;;;;;;;;;;;19.19;69.63;102058.53;4171904;28;20012;-64
2023/09/05 06:37:04;;;;;;;;;;;;;;;19.22;69.53;102062.78;4172781;28;19929;-65
2023/09/05 06:39:06;;;;;;;;;;;;;;;19.23;69.35;102051.63;4171735;28;20039;-64
2023/09/05 06:41:08;;;;;;;;;;;;;;;19.27;69.37;102052.03;4171311;28;20459;-64
2023/09/05 06:43:11;;;;;;;;;;;;;;;19.29;69.39;102055.41;4171973;28;20683;-65
2023/09/05 06:45:13;;;;;;;;;;;;;;;19.32;69.39;102051.44;4171303;28;20738;-64
2023/09/05 06:47:15;;;;;;;;;;;;;;;19.34;69.40;102057.53;4172057;28;20028;-65
2023/09/05 06:49:17;;;;;;;;;;;;;;;19.38;69.03;102053.38;4169626;28;20016;-64
2023/09/05 06:51:18;;;;;;;;;;;;;;;19.39;68.86;102050.41;4170954;28;20762;-65
2023/09/05 06:53:20;;;;;;;;;;;;;;;19.42;68.79;102047.28;4169280;28;19929;-65
2023/09/05 06:55:22;;;;;;;;;;;;;;;19.46;68.81;102058.66;4170982;28;20031;-65
2023/09/05 06:57:24;;;;;;;;;;;;;;;19.48;68.69;102063.94;4172696;28;19925;-64
2023/09/05 06:59:28;;;;;;;;;;;;;;;19.51;68.62;102060.78;4170438;28;20463;-65
2023/09/05 07:01:32;;;;;;;;;;;;;;;19.54;68.42;102061.22;4170972;28;20011;-65
2023/09/05 07:03:34;;;;;;;;;;;;;;;19.57;68.38;102065.44;4172436;28;20024;-65
2023/09/05 07:05:38;;;;;;;;;;;;;;;19.59;68.32;102061.47;4171048;28;20024;-65
2023/09/05 07:07:40;;;;;;;;;;;;;;;19.62;68.19;102062.94;4171328;28;20032;-64
2023/09/05 07:09:42;;;;;;;;;;;;;;;19.64;68.24;102069.06;4170698;28;20356;-65
2023/09/05 07:11:44;;;;;;;;;;;;;;;19.67;67.90;102065.91;4171196;28;20028;-65
2023/09/05 07:13:46;;;;;;;;;;;;;;;19.70;67.89;102057.28;4171646;28;20019;-64
2023/09/05 07:15:51;;;;;;;;;;;;;;;19.73;67.67;102065.09;4170891;28;20016;-65
2023/09/05 07:17:53;;;;;;;;;;;;;;;19.74;67.49;102057.72;4171080;28;20020;-65
2023/09/05 07:19:55;;;;;;;;;;;;;;;19.77;67.48;102066.41;4171540;28;20051;-64
2023/09/05 07:21:57;;;;;;;;;;;;;;;19.79;67.44;102064.28;4177204;28;20011;-64
2023/09/05 07:24:01;;;;;;;;;;;;;;;19.82;67.54;102065.78;4171099;28;20020;-65
2023/09/05 07:26:06;;;;;;;;;;;;;;;19.85;67.29;102079.06;4171073;28;20370;-64
2023/09/05 07:28:09;;;;;;;;;;;;;;;19.87;67.24;102076.13;4171882;28;20018;-65
2023/09/05 07:30:11;;;;;;;;;;;;;;;19.90;67.33;102068.31;4171447;28;20031;-64
2023/09/05 07:32:14;;;;;;;;;;;;;;;19.93;67.35;102072.56;4172379;28;20474;-65
2023/09/05 07:34:16;;;;;;;;;;;;;;;19.95;67.20;102076.78;4172994;28;20388;-65
2023/09/05 07:36:18;;;;;;;;;;;;;;;19.98;66.97;102079.13;4171114;28;20019;-64
2023/09/05 07:38:21;;;;;;;;;;;;;;;20.01;66.99;102085.22;4170471;28;19929;-64
2023/09/05 07:40:23;;;;;;;;;;;;;;;20.05;66.90;102087.34;4176870;28;20027;-64
2023/09/05 07:42:27;;;;;;;;;;;;;;;20.08;66.74;102083.38;4170047;28;20019;-64
2023/09/05 07:44:29;;;;;;;;;;;;;;;20.10;66.71;102094.97;4186066;28;20015;-65
2023/09/05 07:46:30;;;;;;;;;;;;;;;20.13;66.61;102098.13;4171651;28;20023;-64
2023/09/05 07:48:33;;;;;;;;;;;;;;;20.16;66.52;102094.13;4172124;28;19925;-64
2023/09/05 07:50:36;;;;;;;;;;;;;;;20.19;66.47;102088.22;4171819;28;20011;-64
2023/09/05 07:52:38;;;;;;;;;;;;;;;20.21;66.30;102086.13;4172664;28;20028;-65
2023/09/05 07:54:39;;;;;;;;;;;;;;;20.24;66.26;102085.69;4171254;28;20034;-65
2023/09/05 07:56:41;;;;;;;;;;;;;;;20.27;66.37;102088.03;4170511;28;20381;-64
2023/09/05 07:58:43;;;;;;;;;;;;;;;20.30;65.97;102090.34;4170838;28;19956;-63
2023/09/05 08:00:47;;;;;;;;;;;;;;;20.33;65.84;102083.63;4171083;28;20024;-65
2023/09/05 08:02:50;;;;;;;;;;;;;;;20.36;65.81;102091.44;4170232;28;20028;-64
2023/09/05 08:04:52;;;;;;;;;;;;;;;20.38;65.66;102081.06;4170261;28;20008;-64
2023/09/05 08:06:54;;;;;;;;;;;;;;;20.40;65.46;102076.22;4171265;28;20451;-64
2023/09/05 08:08:56;;;;;;;;;;;;;;;20.42;65.49;102079.56;4170778;28;20012;-64
2023/09/05 08:10:58;;;;;;;;;;;;;;;20.45;65.46;102087.38;4170962;28;20051;-63
2023/09/05 08:13:00;;;;;;;;;;;;;;;20.48;65.39;102084.22;4168531;28;20021;-64
2023/09/05 08:15:02;;;;;;;;;;;;;;;20.50;65.29;102084.88;4169909;28;20031;-64
2023/09/05 08:17:04;;;;;;;;;;;;;;;20.52;65.35;102079.19;4170482;28;20074;-64
2023/09/05 08:19:06;;;;;;;;;;;;;;;20.55;65.28;102077.91;4170458;28;19925;-64
2023/09/05 08:21:10;;;;;;;;;;;;;;;20.56;65.14;102076.84;4170898;28;20019;-64
2023/09/05 08:23:12;;;;;;;;;;;;;;;20.58;64.98;102070.09;4169897;28;20019;-64
2023/09/05 08:25:15;;;;;;;;;;;;;;;20.61;64.86;102074.31;4170696;28;20020;-63
2023/09/05 08:27:17;;;;;;;;;;;;;;;20.64;65.04;102074.78;4171747;28;20040;-64
2023/09/05 08:29:20;;;;;;;;;;;;;;;20.66;64.80;102077.31;4170088;28;20019;-64
2023/09/05 08:31:24;;;;;;;;;;;;;;;20.69;64.61;102074.16;4169808;28;20023;-64
2023/09/05 08:33:25;;;;;;;;;;;;;;;20.70;64.50;102079.44;4170448;28;20015;-63
2023/09/05 08:35:26;;;;;;;;;;;;;;;20.74;64.54;102076.25;4170753;28;19928;-64
2023/09/05 08:37:31;;;;;;;;;;;;;;;20.76;64.40;102074.13;4170662;28;20024;-64
2023/09/05 08:39:33;;;;;;;;;;;;;;;20.79;64.21;102068.22;4170766;28;19983;-64
2023/09/05 08:41:35;;;;;;;;;;;;;;;20.82;64.28;102076.88;4170543;28;20011;-64
2023/09/05 08:43:38;;;;;;;;;;;;;;;20.85;64.17;102070.13;4170796;28;20016;-64
2023/09/05 08:45:40;;;;;;;;;;;;;;;20.87;64.18;102066.09;4169706;28;20020;-63
2023/09/05 08:47:42;;;;;;;;;;;;;;;20.91;64.04;102054.66;4170414;28;20023;-64
2023/09/05 08:49:43;;;;;;;;;;;;;;;20.93;64.17;102060.81;4172379;28;20028;-64
2023/09/05 08:51:45;;;;;;;;;;;;;;;20.97;63.60;102059.31;4173150;28;20019;-64
2023/09/05 08:53:51;;;;;;;;;;;;;;;20.98;63.78;102059.09;4173115;28;20016;-64
2023/09/05 08:55:53;;;;;;;;;;;;;;;21.01;63.40;102058.66;4188745;28;20016;-64
2023/09/05 08:57:57;;;;;;;;;;;;;;;21.03;63.46;102062.06;4173257;28;20032;-63
2023/09/05 09:00:00;;;;;;;;;;;;;;;21.07;63.65;102056.97;4173000;28;19929;-64
2023/09/05 09:02:04;;;;;;;;;;;;;;;21.11;63.34;102060.13;4172791;28;20012;-64
2023/09/05 09:04:08;;;;;;;;;;;;;;;21.13;63.40;102058.00;4173639;28;20382;-64
2023/09/05 09:06:10;;;;;;;;;;;;;;;21.15;63.18;102045.75;4173230;28;20372;-64
2023/09/05 09:08:12;;;;;;;;;;;;;;;21.16;63.05;102041.09;4170834;28;20011;-64
2023/09/05 09:10:20;;;;;;;;;;;;;;;21.18;63.18;102039.81;4173425;28;20048;-64
2023/09/05 09:12:27;;;;;;;;;;;;;;;21.20;62.87;102043.19;4172981;28;20371;-64
2023/09/05 09:14:32;;;;;;;;;;;;;;;21.23;62.81;102040.00;4173144;28;20023;-64
2023/09/05 09:16:34;;;;;;;;;;;;;;;21.26;62.42;102033.25;4173026;28;20011;-64
2023/09/05 09:18:40;;;;;;;;;;;;;;;21.30;62.33;102042.75;4173690;28;20027;-64
2023/09/05 09:20:43;;;;;;;;;;;;;;;21.32;62.26;102042.53;4178986;28;20007;-64
2023/09/05 09:22:45;;;;;;;;;;;;;;;21.34;62.26;102051.38;4173271;28;20012;-66
2023/09/05 09:24:46;;;;;;;;;;;;;;;21.35;61.96;102047.59;4172572;28;20031;-65
2023/09/05 09:26:50;;;;;;;;;;;;;;;21.36;61.85;102041.88;4173469;28;19931;-66
2023/09/05 09:28:53;;;;;;;;;;;;;;;21.39;61.68;102037.84;4172420;28;20024;-66
2023/09/05 09:30:57;;;;;;;;;;;;;;;21.39;61.74;102030.44;4172092;28;20011;-66
2023/09/05 09:33:00;;;;;;;;;;;;;;;21.41;61.65;102033.81;4172863;28;20032;-66
2023/09/05 09:35:02;;;;;;;;;;;;;;;21.44;60.88;102038.00;4173007;28;20067;-66
2023/09/05 09:37:04;;;;;;;;;;;;;;;21.47;61.13;102023.00;4173220;28;20032;-65
2023/09/05 09:39:09;;;;;;;;;;;;;;;21.47;61.29;102026.59;4172990;28;20031;-66
2023/09/05 09:41:12;;;;;;;;;;;;;;;21.47;61.22;102029.34;4172463;28;20395;-66
2023/09/05 09:43:16;;;;;;;;;;;;;;;21.49;60.96;102015.41;4172757;28;20011;-66
2023/09/05 09:45:19;;;;;;;;;;;;;;;21.51;60.97;102024.28;4172407;28;20441;-65
2023/09/05 09:47:21;;;;;;;;;;;;;;;21.52;60.89;102015.84;4172426;28;20800;-65
2023/09/05 09:49:23;;;;;;;;;;;;;;;21.54;60.92;102023.84;4172309;28;20015;-66
2023/09/05 09:51:25;;;;;;;;;;;;;;;21.53;60.98;102016.66;4172562;28;20023;-66
2023/09/05 09:53:35;;;;;;;;;;;;;;;21.55;60.69;102020.88;4172418;28;20024;-66
2023/09/05 09:55:37;;;;;;;;;;;;;;;21.58;60.83;102017.72;4172531;28;20019;-65
2023/09/05 09:57:41;;;;;;;;;;;;;;;21.59;60.87;102013.03;4172243;28;20020;-66
2023/09/05 09:59:44;;;;;;;;;;;;;;;21.60;60.81;102009.25;4170271;28;20032;-66
2023/09/05 10:01:47;;;;;;;;;;;;;;;21.60;60.60;102010.06;4171786;28;19925;-66
2023/09/05 10:03:49;;;;;;;;;;;;;;;21.62;60.69;102009.84;4172707;28;20016;-66
2023/09/05 10:05:51;;;;;;;;;;;;;;;21.64;60.74;102007.72;4171620;28;20019;-66
2023/09/05 10:07:54;;;;;;;;;;;;;;;21.66;60.60;102005.63;4172416;28;20023;-66
2023/09/05 10:09:56;;;;;;;;;;;;;;;21.68;60.73;101999.88;4171840;28;20008;-66
2023/09/05 10:11:58;;;;;;;;;;;;;;;21.68;60.79;101999.88;4172153;28;20027;-65
2023/09/05 10:14:00;;;;;;;;;;;;;;;21.68;60.69;102008.13;4172076;28;20167;-67
2023/09/05 10:16:06;;;;;;;;;;;;;;;21.72;60.65;102001.13;4171817;28;20509;-65
2023/09/05 10:18:09;;;;;;;;;;;;;;;21.74;60.59;101991.59;4171169;28;20011;-64
2023/09/05 10:20:14;;;;;;;;;;;;;;;21.76;60.73;101996.88;4172276;28;20296;-65
2023/09/05 10:22:16;;;;;;;;;;;;;;;21.75;60.42;102001.50;4171895;28;20020;-65
2023/09/05 10:24:18;;;;;;;;;;;;;;;21.78;60.37;101997.47;4172168;28;20016;-64
2023/09/05 10:26:20;;;;;;;;;;;;;;;21.80;60.43;101989.84;4172025;28;20016;-64
2023/09/05 10:28:23;;;;;;;;;;;;;;;21.81;60.43;101988.78;4172212;28;20028;-64
2023/09/05 10:30:25;;;;;;;;;;;;;;;21.82;60.52;101987.75;4172166;28;20024;-65
2023/09/05 10:32:27;;;;;;;;;;;;;;;21.84;60.14;101969.09;4171834;28;20019;-64
2023/09/05 10:34:47;;;;;;;;;;;;;;;21.87;60.20;101976.06;4172339;28;20028;-65
2023/09/05 10:36:51;;;;;;;;;;;;;;;21.90;59.90;101972.88;4171954;28;20028;-65
2023/09/05 10:38:54;;;;;;;;;;;;;;;21.94;60.13;101968.59;4171837;28;20019;-65
2023/09/05 10:40:56;;;;;;;;;;;;;;;21.94;59.88;101965.84;4171618;28;20371;-65
2023/09/05 10:42:58;;;;;;;;;;;;;;;21.96;59.84;101963.75;4171779;28;19944;-65
2023/09/05 10:45:16;;;;;;;;;;;;;;;21.98;59.99;101967.09;4172095;28;19933;-65
2023/09/05 10:47:24;;;;;;;;;;;;;;;22.01;59.84;101954.81;4170833;28;20008;-65
2023/09/05 10:49:28;;;;;;;;;;;;;;;22.05;59.61;101954.16;4171366;28;20382;-65
2023/09/05 10:51:30;;;;;;;;;;;;;;;22.08;59.69;101964.66;4171089;28;20366;-65
2023/09/05 10:53:31;;;;;;;;;;;;;;;22.12;59.52;101954.06;4171650;28;20129;-64
2023/09/05 10:55:40;;;;;;;;;;;;;;;22.16;59.61;101965.47;4171000;28;20468;-65
2023/09/05 10:57:42;;;;;;;;;;;;;;;22.20;59.60;101956.53;4171901;28;20006;-65
2023/09/05 10:59:43;;;;;;;;;;;;;;;22.24;59.53;101954.16;4171408;28;20035;-65
2023/09/05 11:01:48;;;;;;;;;;;;;;;22.29;59.32;101949.69;4171444;28;19925;-64
2023/09/05 11:03:50;;;;;;;;;;;;;;;22.35;59.18;101956.25;4171977;28;20449;-65
2023/09/05 11:05:53;;;;;;;;;;;;;;;22.43;59.18;101950.44;4171481;28;20028;-65
2023/09/05 11:07:55;;;;;;;;;;;;;;;22.51;58.98;101943.78;4170953;28;20455;-64
2023/09/05 11:09:57;;;;;;;;;;;;;;;22.57;58.80;101948.38;4171096;28;20039;-64
2023/09/05 11:12:04;;;;;;;;;;;;;;;22.63;58.43;101947.47;4171396;28;20028;-65
2023/09/05 11:14:06;;;;;;;;;;;;;;;22.69;58.57;101945.69;4171821;28;20444;-65
2023/09/05 11:16:08;;;;;;;;;;;;;;;22.78;58.26;101938.00;4171460;28;20463;-65
2023/09/05 11:18:11;;;;;;;;;;;;;;;22.86;58.22;101943.19;4186217;28;20022;-65
2023/09/05 11:20:15;;;;;;;;;;;;;;;22.95;58.15;101944.56;4171371;28;20055;-65
2023/09/05 11:22:21;;;;;;;;;;;;;;;23.06;57.94;101929.16;4170799;28;20011;-65
2023/09/05 11:24:28;;;;;;;;;;;;;;;23.18;57.54;101943.00;4171706;28;19925;-65
2023/09/05 11:26:30;;;;;;;;;;;;;;;23.29;57.53;101935.88;4171026;28;20024;-64
2023/09/05 11:28:32;;;;;;;;;;;;;;;23.39;56.93;101925.16;4171067;28;20048;-65
2023/09/05 11:30:36;;;;;;;;;;;;;;;23.50;57.04;101931.78;4171142;28;20022;-65
2023/09/05 11:32:39;;;;;;;;;;;;;;;23.61;56.50;101930.97;4171117;28;20466;-65
2023/09/05 11:34:41;;;;;;;;;;;;;;;23.72;56.29;101938.41;4171537;28;20019;-65
2023/09/05 11:36:43;;;;;;;;;;;;;;;23.82;56.04;101920.47;4171308;28;20019;-65
2023/09/05 11:38:47;;;;;;;;;;;;;;;23.92;55.82;101918.81;4170616;28;20019;-65
2023/09/05 11:40:52;;;;;;;;;;;;;;;23.99;55.71;101918.72;4171168;28;20087;-65
2023/09/05 11:43:01;;;;;;;;;;;;;;;24.10;56.04;101915.09;4171013;28;20035;-65
2023/09/05 11:45:05;;;;;;;;;;;;;;;24.19;55.74;101925.81;4171069;28;20326;-65
2023/09/05 11:47:06;;;;;;;;;;;;;;;24.27;55.27;101918.00;4171068;28;20462;-65
2023/09/05 11:49:08;;;;;;;;;;;;;;;24.36;54.95;101914.88;4170732;28;19964;-65
2023/09/05 11:51:12;;;;;;;;;;;;;;;24.42;55.10;101906.47;4170359;28;20012;-65